createdAt,value
2022-09-07T00:00:49.469Z,1.80
2022-09-07T00:03:17.471Z,1.87
2022-09-07T00:05:46.855Z,1.67
2022-09-07T00:08:15.730Z,1.77
2022-09-07T00:10:57.187Z,1.90
2022-09-07T00:13:25.739Z,1.67
2022-09-07T00:15:53.250Z,1.75
2022-09-07T00:18:21.039Z,1.90
2022-09-07T00:21:01.171Z,1.75
2022-09-07T00:23:30.611Z,1.83
2022-09-07T00:26:10.378Z,2.28
2022-09-07T00:28:38.481Z,1.77
2022-09-07T00:31:11.058Z,1.80
2022-09-07T00:33:38.583Z,1.70
2022-09-07T00:36:06.184Z,1.85
2022-09-07T00:38:33.522Z,1.80
2022-09-07T00:41:00.820Z,1.48
2022-09-07T00:43:38.482Z,1.52
2022-09-07T00:46:12.124Z,1.63
2022-09-07T00:48:57.453Z,1.90
2022-09-07T00:51:44.104Z,1.75
2022-09-07T00:54:17.432Z,1.52
2022-09-07T00:56:46.895Z,1.98
2022-09-07T00:59:17.594Z,1.88
2022-09-07T01:01:45.580Z,1.80
2022-09-07T01:04:16.253Z,1.70
2022-09-07T01:06:46.066Z,2.45
2022-09-07T01:09:19.048Z,2.10
2022-09-07T01:11:51.237Z,1.70
2022-09-07T01:14:23.008Z,1.45
2022-09-07T01:17:19.896Z,1.95
2022-09-07T01:20:10.822Z,1.90
2022-09-07T01:22:56.885Z,1.70
2022-09-07T01:25:45.301Z,1.70
2022-09-07T01:28:26.671Z,2.38
2022-09-07T01:33:32.746Z,1.92
2022-09-07T01:36:32.644Z,2.08
2022-09-07T01:39:03.336Z,2.05
2022-09-07T01:41:47.521Z,2.40
2022-09-07T01:44:23.678Z,2.22
2022-09-07T01:47:06.460Z,2.35
2022-09-07T01:49:42.627Z,2.00
2022-09-07T01:52:35.842Z,2.00
2022-09-07T01:55:50.658Z,1.60
2022-09-07T01:58:23.932Z,2.00
2022-09-07T02:00:58.178Z,1.80
2022-09-07T02:03:55.355Z,2.25
2022-09-07T02:06:48.107Z,1.73
2022-09-07T02:09:37.539Z,1.90
2022-09-07T02:12:15.117Z,1.92
2022-09-07T02:14:52.366Z,2.22
2022-09-07T02:17:25.157Z,1.90
2022-09-07T02:20:00.041Z,2.35
2022-09-07T02:22:32.062Z,1.98
2022-09-07T02:25:03.453Z,2.20
2022-09-07T02:27:40.986Z,2.00
2022-09-07T02:30:08.907Z,1.70
2022-09-07T02:32:36.088Z,2.03
2022-09-07T02:35:04.227Z,1.75
2022-09-07T02:37:32.670Z,2.08
2022-09-07T02:40:00.496Z,1.98
2022-09-07T02:42:34.087Z,2.00
2022-09-07T02:45:06.456Z,1.88
2022-09-07T02:47:55.244Z,2.70
2022-09-07T02:50:37.357Z,2.40
2022-09-07T02:53:31.740Z,1.98
2022-09-07T02:56:17.181Z,2.40
2022-09-07T02:58:59.785Z,2.10
2022-09-07T03:01:51.403Z,1.92
2022-09-07T03:04:40.128Z,2.20
2022-09-07T03:07:13.238Z,1.80
2022-09-07T03:09:45.735Z,2.10
2022-09-07T03:12:13.284Z,2.00
2022-09-07T03:14:42.311Z,2.03
2022-09-07T03:17:10.719Z,2.15
2022-09-07T03:19:38.044Z,2.15
2022-09-07T03:22:06.113Z,1.80
2022-09-07T03:24:33.603Z,2.00
2022-09-07T03:27:01.859Z,1.50
2022-09-07T03:29:29.083Z,2.08
2022-09-07T03:31:56.371Z,1.88
2022-09-07T03:34:23.569Z,2.00
2022-09-07T03:36:50.897Z,2.45
2022-09-07T03:39:21.030Z,2.10
2022-09-07T03:41:48.334Z,2.00
2022-09-07T03:44:15.551Z,1.73
2022-09-07T03:46:44.380Z,1.90
2022-09-07T03:49:11.891Z,2.13
2022-09-07T03:51:39.537Z,1.80
2022-09-07T03:54:07.503Z,2.10
2022-09-07T03:56:34.873Z,2.85
2022-09-07T03:59:02.106Z,2.33
2022-09-07T04:01:29.957Z,2.10
2022-09-07T04:04:02.129Z,2.10
2022-09-07T04:06:31.126Z,2.28
2022-09-07T04:09:04.692Z,2.45
2022-09-07T04:11:32.254Z,2.25
2022-09-07T04:13:59.615Z,2.38
2022-09-07T04:16:27.972Z,3.03
2022-09-07T04:18:55.358Z,2.25
2022-09-07T04:21:23.889Z,2.15
2022-09-07T04:23:51.528Z,2.15
2022-09-07T04:26:24.737Z,1.83
2022-09-07T04:28:52.437Z,2.15
2022-09-07T04:31:20.394Z,1.83
2022-09-07T04:33:49.904Z,2.10
2022-09-07T04:36:18.933Z,2.30
2022-09-07T04:38:47.125Z,2.25
2022-09-07T04:41:17.160Z,2.75
2022-09-07T04:43:46.111Z,3.83
2022-09-07T04:46:20.893Z,3.33
2022-09-07T04:48:53.491Z,4.28
2022-09-07T04:51:22.623Z,3.65
2022-09-07T04:53:51.553Z,3.25
2022-09-07T04:56:19.700Z,3.13
2022-09-07T04:58:47.978Z,2.75
2022-09-07T05:01:17.900Z,3.55
2022-09-07T05:03:45.998Z,3.10
2022-09-07T05:06:14.395Z,3.00
2022-09-07T05:08:45.167Z,3.22
2022-09-07T05:11:14.389Z,2.97
2022-09-07T05:13:41.706Z,3.90
2022-09-07T05:16:15.037Z,3.60
2022-09-07T05:18:42.796Z,3.30
2022-09-07T05:21:14.070Z,2.88
2022-09-07T05:26:10.329Z,2.72
2022-09-07T05:28:38.701Z,3.08
2022-09-07T05:31:20.034Z,3.17
2022-09-07T05:36:39.827Z,2.58
2022-09-07T05:39:08.725Z,3.15
2022-09-07T05:41:35.914Z,3.17
2022-09-07T05:46:52.344Z,3.25
2022-09-07T05:49:19.591Z,3.13
2022-09-07T05:51:47.284Z,2.90
2022-09-07T05:54:14.673Z,3.03
2022-09-07T05:56:42.988Z,2.78
2022-09-07T05:59:10.550Z,2.63
2022-09-07T06:01:37.921Z,3.38
2022-09-07T06:04:05.028Z,2.65
2022-09-07T06:06:32.666Z,2.65
2022-09-07T06:09:00.247Z,2.40
2022-09-07T06:11:27.570Z,3.10
2022-09-07T06:13:54.795Z,2.83
2022-09-07T06:16:22.907Z,2.65
2022-09-07T06:18:50.658Z,3.25
2022-09-07T06:21:23.289Z,2.17
2022-09-07T06:23:51.922Z,2.47
2022-09-07T06:26:19.949Z,2.13
2022-09-07T06:28:52.097Z,2.80
2022-09-07T06:31:23.632Z,2.63
2022-09-07T06:33:52.302Z,2.17
2022-09-07T06:36:21.696Z,2.20
2022-09-07T06:38:50.041Z,2.50
2022-09-07T06:44:08.919Z,2.53
2022-09-07T06:49:25.055Z,2.50
2022-09-07T06:51:52.503Z,2.40
2022-09-07T06:57:09.436Z,2.13
2022-09-07T06:59:38.047Z,2.75
2022-09-07T07:02:07.187Z,2.42
2022-09-07T07:04:40.282Z,2.88
2022-09-07T07:07:13.012Z,2.80
2022-09-07T07:09:40.530Z,3.60
2022-09-07T07:12:11.133Z,2.28
2022-09-07T07:17:12.765Z,2.05
2022-09-07T07:19:39.941Z,3.05
2022-09-07T07:22:23.753Z,2.08
2022-09-07T07:24:54.534Z,2.10
2022-09-07T07:27:22.141Z,1.45
2022-09-07T07:29:50.196Z,1.80
2022-09-07T07:32:17.538Z,1.67
2022-09-07T07:34:44.875Z,2.20
2022-09-07T07:37:12.216Z,2.03
2022-09-07T07:42:26.971Z,1.40
2022-09-07T07:47:42.593Z,1.60
2022-09-07T07:55:45.647Z,1.55
2022-09-07T07:58:13.038Z,1.90
2022-09-07T08:00:53.747Z,1.70
2022-09-07T08:03:23.845Z,2.67
2022-09-07T08:05:51.595Z,1.38
2022-09-07T08:08:19.161Z,1.40
2022-09-07T08:10:48.090Z,2.95
2022-09-07T08:13:16.636Z,1.58
2022-09-07T08:15:46.894Z,1.80
2022-09-07T08:18:16.852Z,1.80
2022-09-07T08:20:44.795Z,1.75
2022-09-07T08:23:12.226Z,1.50
2022-09-07T08:25:48.816Z,1.52
2022-09-07T08:28:16.088Z,1.33
2022-09-07T08:30:43.794Z,1.50
2022-09-07T08:33:11.380Z,1.50
2022-09-07T08:35:38.443Z,1.67
2022-09-07T08:38:05.735Z,1.40
2022-09-07T08:40:37.247Z,1.60
2022-09-07T08:43:28.793Z,1.63
2022-09-07T08:46:04.284Z,1.20
2022-09-07T08:48:34.470Z,1.40
2022-09-07T08:51:21.195Z,1.40
2022-09-07T08:53:53.374Z,1.73
2022-09-07T08:56:33.648Z,1.60
2022-09-07T08:59:15.691Z,1.50
2022-09-07T09:02:26.274Z,1.20
2022-09-07T09:04:32.229Z,1.63
2022-09-07T09:07:17.929Z,1.67
2022-09-07T09:10:04.513Z,1.08
2022-09-07T09:13:13.879Z,1.67
2022-09-07T09:16:16.130Z,1.40
2022-09-07T09:18:52.934Z,1.70
2022-09-07T09:21:27.228Z,1.30
2022-09-07T09:24:02.211Z,1.30
2022-09-07T09:26:34.217Z,1.65
2022-09-07T09:29:20.403Z,1.33
2022-09-07T09:31:47.872Z,1.40
2022-09-07T09:34:17.855Z,1.25
2022-09-07T09:36:49.467Z,1.48
2022-09-07T09:39:32.061Z,1.15
2022-09-07T09:42:14.815Z,1.30
2022-09-07T09:44:43.919Z,1.23
2022-09-07T09:47:30.758Z,1.02
2022-09-07T09:53:28.123Z,1.05
2022-09-07T09:55:56.975Z,1.27
2022-09-07T10:01:35.451Z,1.20
2022-09-07T10:04:38.086Z,1.38
2022-09-07T10:07:28.381Z,1.30
2022-09-07T10:09:57.076Z,1.10
2022-09-07T10:12:29.770Z,1.42
2022-09-07T10:14:57.547Z,1.20
2022-09-07T10:17:34.621Z,1.50
2022-09-07T10:20:17.751Z,1.23
2022-09-07T10:22:52.009Z,1.00
2022-09-07T10:25:39.834Z,1.30
2022-09-07T10:28:11.049Z,1.08
2022-09-07T10:30:56.136Z,1.35
2022-09-07T10:33:28.187Z,1.40
2022-09-07T10:36:21.501Z,1.25
2022-09-07T10:39:00.196Z,1.42
2022-09-07T10:41:42.346Z,1.50
2022-09-07T10:44:23.761Z,1.08
2022-09-07T10:49:38.231Z,1.20
2022-09-07T10:52:34.271Z,1.60
2022-09-07T10:55:28.248Z,1.40
2022-09-07T10:58:02.771Z,1.55
2022-09-07T11:00:37.525Z,1.02
2022-09-07T11:03:26.437Z,1.30
2022-09-07T11:06:33.219Z,1.27
2022-09-07T11:09:16.454Z,1.20
2022-09-07T11:12:04.404Z,1.10
2022-09-07T11:14:41.521Z,0.93
2022-09-07T11:17:24.894Z,1.23
2022-09-07T11:20:08.681Z,1.30
2022-09-07T11:22:45.733Z,1.10
2022-09-07T11:25:34.081Z,1.30
2022-09-07T11:28:13.078Z,1.10
2022-09-07T11:30:50.849Z,1.10
2022-09-07T11:34:23.716Z,1.23
2022-09-07T11:36:40.622Z,1.25
2022-09-07T11:39:14.981Z,0.90
2022-09-07T11:41:49.464Z,1.48
2022-09-07T11:44:40.029Z,1.15
2022-09-07T11:47:24.743Z,1.27
2022-09-07T11:49:59.179Z,1.10
2022-09-07T11:52:29.357Z,1.10
2022-09-07T11:55:02.349Z,1.00
2022-09-07T11:57:46.028Z,1.10
2022-09-07T12:00:21.723Z,1.13
2022-09-07T12:03:00.207Z,1.10
2022-09-07T12:05:46.029Z,1.15
2022-09-07T12:08:21.875Z,0.90
2022-09-07T12:10:58.124Z,1.10
2022-09-07T12:14:03.093Z,1.00
2022-09-07T12:17:18.891Z,1.10
2022-09-07T12:19:46.635Z,0.90
2022-09-07T12:22:22.123Z,1.00
2022-09-07T12:24:54.119Z,2.38
2022-09-07T12:27:21.322Z,1.15
2022-09-07T12:29:50.055Z,1.17
2022-09-07T12:32:57.042Z,0.95
2022-09-07T12:35:28.658Z,0.98
2022-09-07T12:37:57.658Z,1.05
2022-09-07T12:40:28.015Z,1.20
2022-09-07T12:43:15.796Z,0.98
2022-09-07T12:45:43.028Z,1.20
2022-09-07T12:48:33.200Z,1.42
2022-09-07T12:51:12.549Z,1.23
2022-09-07T12:53:57.836Z,1.10
2022-09-07T13:00:02.586Z,1.13
2022-09-07T13:02:30.430Z,0.90
2022-09-07T13:05:03.522Z,1.80
2022-09-07T13:07:36.777Z,1.00
2022-09-07T13:10:17.023Z,1.15
2022-09-07T13:12:56.624Z,1.10
2022-09-07T13:15:52.279Z,1.02
2022-09-07T13:18:29.352Z,1.05
2022-09-07T13:21:09.145Z,1.00
2022-09-07T13:23:41.078Z,1.10
2022-09-07T13:26:12.133Z,1.10
2022-09-07T13:28:56.066Z,0.88
2022-09-07T13:31:51.696Z,0.90
2022-09-07T13:34:35.311Z,2.75
2022-09-07T13:37:06.410Z,1.17
2022-09-07T13:39:42.077Z,1.20
2022-09-07T13:42:16.594Z,0.98
2022-09-07T13:44:55.744Z,1.00
2022-09-07T13:47:40.205Z,1.10
2022-09-07T13:50:34.854Z,1.00
2022-09-07T13:53:32.730Z,1.17
2022-09-07T13:56:38.263Z,0.95
2022-09-07T13:59:23.548Z,1.10
2022-09-07T14:01:52.499Z,1.27
2022-09-07T14:04:27.305Z,1.02
2022-09-07T14:07:15.064Z,1.00
2022-09-07T14:09:42.994Z,0.82
2022-09-07T14:12:21.370Z,1.17
2022-09-07T14:15:18.603Z,1.25
2022-09-07T14:17:47.371Z,1.00
2022-09-07T14:20:17.019Z,1.05
2022-09-07T14:22:49.403Z,1.10
2022-09-07T14:25:22.884Z,0.90
2022-09-07T14:27:50.403Z,1.10
2022-09-07T14:30:32.090Z,1.10
2022-09-07T14:33:03.089Z,0.90
2022-09-07T14:35:37.111Z,0.90
2022-09-07T14:39:04.095Z,0.80
2022-09-07T14:41:11.795Z,0.90
2022-09-07T14:43:51.123Z,0.75
2022-09-07T14:46:22.327Z,1.27
2022-09-07T14:48:57.058Z,1.10
2022-09-07T14:51:36.632Z,1.08
2022-09-07T14:54:06.992Z,1.10
2022-09-07T14:56:36.741Z,1.10
2022-09-07T14:59:26.746Z,1.27
2022-09-07T15:02:20.117Z,0.90
2022-09-07T15:04:49.060Z,0.95
2022-09-07T15:07:50.150Z,1.00
2022-09-07T15:10:23.882Z,3.05
2022-09-07T15:12:53.833Z,1.20
2022-09-07T15:15:33.682Z,1.30
2022-09-07T15:18:09.037Z,0.80
2022-09-07T15:20:40.506Z,8.77
2022-09-07T15:23:13.633Z,4.72
2022-09-07T15:25:45.435Z,13.55
2022-09-07T15:34:10.238Z,1.42
2022-09-07T15:36:40.757Z,1.10
2022-09-07T15:39:21.336Z,0.90
2022-09-07T15:41:49.747Z,1.20
2022-09-07T15:44:21.534Z,1.40
2022-09-07T15:49:47.443Z,1.20
2022-09-07T15:52:17.224Z,1.00
2022-09-07T15:54:44.342Z,1.20
2022-09-07T15:59:59.615Z,1.20
2022-09-07T16:05:16.006Z,1.30
2022-09-07T16:10:31.731Z,1.20
2022-09-07T16:13:02.247Z,1.48
2022-09-07T16:15:31.448Z,1.70
2022-09-07T16:17:58.809Z,1.90
2022-09-07T16:20:26.876Z,1.98
2022-09-07T16:25:43.395Z,1.65
2022-09-07T16:28:11.065Z,1.40
2022-09-07T16:30:41.420Z,1.50
2022-09-07T16:33:09.347Z,1.95
2022-09-07T16:35:36.607Z,1.40
2022-09-07T16:40:53.974Z,1.38
2022-09-07T16:43:27.166Z,1.05
2022-09-07T16:46:15.233Z,1.70
2022-09-07T16:48:44.300Z,1.88
2022-09-07T16:51:13.513Z,1.92
2022-09-07T16:53:40.647Z,1.90
2022-09-07T16:56:16.902Z,2.13
2022-09-07T16:58:54.835Z,2.13
2022-09-07T17:01:26.332Z,2.80
2022-09-07T17:03:54.238Z,1.85
2022-09-07T17:06:23.825Z,2.20
2022-09-07T17:08:53.487Z,3.00
2022-09-07T17:11:41.091Z,2.15
2022-09-07T17:14:08.378Z,3.00
2022-09-07T17:16:38.913Z,2.45
2022-09-07T17:21:57.704Z,4.15
2022-09-07T17:24:25.290Z,3.50
2022-09-07T17:26:53.911Z,4.32
2022-09-07T17:29:21.023Z,2.75
2022-09-07T17:34:36.209Z,2.38
2022-09-07T17:37:07.635Z,2.42
2022-09-07T17:39:35.454Z,2.10
2022-09-07T17:42:02.778Z,2.80
2022-09-07T17:44:35.804Z,3.25
2022-09-07T17:47:05.468Z,2.88
2022-09-07T17:49:32.633Z,2.10
2022-09-07T17:52:01.088Z,2.10
2022-09-07T17:54:28.323Z,1.90
2022-09-07T17:56:55.480Z,2.63
2022-09-07T18:02:13.639Z,2.13
2022-09-07T18:04:41.047Z,2.08
2022-09-07T18:07:08.654Z,2.35
2022-09-07T18:09:36.043Z,2.10
2022-09-07T18:12:03.762Z,2.70
2022-09-07T18:14:32.228Z,2.05
2022-09-07T18:17:00.482Z,2.40
2022-09-07T18:19:28.463Z,2.20
2022-09-07T18:21:56.283Z,2.30
2022-09-07T18:24:24.556Z,1.92
2022-09-07T18:26:54.143Z,2.40
2022-09-07T18:29:28.640Z,2.30
2022-09-07T18:31:57.486Z,2.42
2022-09-07T18:34:25.094Z,3.25
2022-09-07T18:36:52.214Z,3.00
2022-09-07T18:39:19.532Z,2.08
2022-09-07T18:41:46.672Z,2.70
2022-09-07T18:47:01.326Z,2.58
2022-09-07T18:49:28.787Z,2.50
2022-09-07T18:54:43.096Z,2.70
2022-09-07T18:57:10.273Z,2.50
2022-09-07T18:59:37.793Z,2.58
2022-09-07T19:02:08.037Z,2.33
2022-09-07T19:07:27.368Z,3.47
2022-09-07T19:09:56.904Z,2.67
2022-09-07T19:12:24.674Z,2.80
2022-09-07T19:14:51.834Z,3.08
2022-09-07T19:17:19.609Z,2.70
2022-09-07T19:19:48.445Z,3.20
2022-09-07T19:22:15.584Z,2.65
2022-09-07T19:24:43.830Z,2.58
2022-09-07T19:27:10.908Z,3.03
2022-09-07T19:29:37.938Z,2.80
2022-09-07T19:32:05.663Z,2.88
2022-09-07T19:34:38.171Z,2.92
2022-09-07T19:37:07.273Z,3.00
2022-09-07T19:39:34.427Z,2.88
2022-09-07T19:42:04.338Z,3.00
2022-09-07T19:44:31.915Z,2.92
2022-09-07T19:47:00.173Z,3.50
2022-09-07T19:49:28.063Z,3.10
2022-09-07T19:51:55.624Z,3.33
2022-09-07T19:54:22.948Z,3.25
2022-09-07T19:56:50.066Z,3.25
2022-09-07T19:59:19.202Z,3.22
2022-09-07T20:01:48.351Z,3.28
2022-09-07T20:04:20.713Z,3.65
2022-09-07T20:06:50.360Z,3.53
2022-09-07T20:09:18.895Z,3.35
2022-09-07T20:11:47.934Z,3.30
2022-09-07T20:14:16.264Z,3.58
2022-09-07T20:16:43.656Z,3.33
2022-09-07T20:19:14.632Z,3.10
2022-09-07T20:21:42.661Z,3.70
2022-09-07T20:24:12.437Z,4.50
2022-09-07T20:26:39.788Z,3.90
2022-09-07T20:31:55.114Z,3.92
2022-09-07T20:34:22.327Z,3.83
2022-09-07T20:36:50.454Z,3.67
2022-09-07T20:39:18.440Z,3.90
2022-09-07T20:41:45.711Z,3.95
2022-09-07T20:44:13.221Z,3.70
2022-09-07T20:46:40.704Z,4.22
2022-09-07T20:49:07.967Z,4.10
2022-09-07T20:51:35.362Z,4.05
2022-09-07T20:54:02.424Z,4.40
2022-09-07T20:56:29.676Z,3.78
2022-09-07T20:59:02.186Z,4.03
2022-09-07T21:01:31.603Z,3.78
2022-09-07T21:04:00.710Z,3.88
2022-09-07T21:06:29.303Z,4.65
2022-09-07T21:08:59.568Z,4.97
2022-09-07T21:11:32.424Z,4.40
2022-09-07T21:14:08.608Z,5.20
2022-09-07T21:16:36.527Z,4.93
2022-09-07T21:19:06.990Z,4.55
2022-09-07T21:21:38.943Z,4.43
2022-09-07T21:24:16.994Z,5.25
2022-09-07T21:26:44.438Z,4.85
2022-09-07T21:29:20.324Z,4.38
2022-09-07T21:31:48.421Z,4.57
2022-09-07T21:34:16.540Z,4.65
2022-09-07T21:36:44.071Z,4.65
2022-09-07T21:39:14.362Z,4.93
2022-09-07T21:41:42.604Z,4.70
2022-09-07T21:44:15.170Z,5.05
2022-09-07T21:46:43.466Z,4.07
2022-09-07T21:49:11.433Z,4.53
2022-09-07T21:51:39.024Z,4.45
2022-09-07T21:54:06.127Z,4.30
2022-09-07T21:56:33.278Z,4.32
2022-09-07T21:59:02.117Z,4.85
2022-09-07T22:01:31.098Z,4.22
2022-09-07T22:04:03.714Z,4.88
2022-09-07T22:06:32.585Z,4.50
2022-09-07T22:09:00.574Z,4.53
2022-09-07T22:11:28.647Z,4.43
2022-09-07T22:13:57.961Z,4.10
2022-09-07T22:16:25.295Z,4.53
2022-09-07T22:18:52.555Z,4.63
2022-09-07T22:21:22.813Z,4.20
2022-09-07T22:23:52.608Z,4.20
2022-09-07T22:26:23.419Z,4.57
2022-09-07T22:28:50.972Z,4.78
2022-09-07T22:31:30.792Z,5.00
2022-09-07T22:33:59.795Z,4.85
2022-09-07T22:36:28.794Z,4.75
2022-09-07T22:38:57.899Z,5.00
2022-09-07T22:41:28.170Z,4.55
2022-09-07T22:43:56.209Z,4.85
2022-09-07T22:46:25.788Z,4.68
2022-09-07T22:48:58.286Z,4.40
2022-09-07T22:51:26.271Z,4.13
2022-09-07T22:53:54.317Z,5.25
2022-09-07T22:56:27.599Z,4.88
2022-09-07T22:59:00.696Z,4.88
2022-09-07T23:01:29.750Z,4.18
2022-09-07T23:03:57.533Z,4.75
2022-09-07T23:06:29.357Z,4.78
2022-09-07T23:08:58.280Z,4.50
2022-09-07T23:11:26.201Z,4.47
2022-09-07T23:13:55.714Z,4.22
2022-09-07T23:16:23.788Z,4.85
2022-09-07T23:18:50.983Z,5.20
2022-09-07T23:21:18.643Z,5.35
2022-09-07T23:23:53.458Z,5.20
2022-09-07T23:26:22.404Z,4.95
2022-09-07T23:29:00.564Z,4.80
2022-09-07T23:31:40.845Z,4.85
2022-09-07T23:34:08.444Z,5.07
2022-09-07T23:36:36.884Z,4.43
2022-09-07T23:39:04.468Z,4.72
2022-09-07T23:41:31.838Z,5.57
2022-09-07T23:43:58.854Z,4.47
2022-09-07T23:46:26.512Z,4.68
2022-09-07T23:48:54.054Z,5.03
2022-09-07T23:51:24.160Z,4.85
2022-09-07T23:53:52.455Z,4.30
2022-09-07T23:56:20.430Z,5.03
2022-09-07T23:58:50.647Z,4.82
